createdAt,value
2022-11-24T00:01:31.646Z,79.10
2022-11-24T00:04:05.413Z,78.99
2022-11-24T00:06:36.021Z,78.90
2022-11-24T00:09:05.407Z,78.81
2022-11-24T00:11:35.943Z,78.93
2022-11-24T00:14:06.336Z,78.90
2022-11-24T00:16:36.950Z,79.10
2022-11-24T00:19:12.746Z,79.15
2022-11-24T00:21:44.024Z,78.92
2022-11-24T00:24:12.219Z,79.24
2022-11-24T00:26:40.591Z,78.94
2022-11-24T00:29:11.485Z,79.12
2022-11-24T00:31:41.403Z,79.12
2022-11-24T00:34:14.531Z,79.03
2022-11-24T00:36:43.429Z,79.03
2022-11-24T00:39:14.319Z,79.08
2022-11-24T00:41:43.735Z,78.97
2022-11-24T00:44:12.792Z,78.96
2022-11-24T00:46:42.157Z,78.99
2022-11-24T00:49:11.983Z,78.82
2022-11-24T00:51:40.076Z,78.94
2022-11-24T00:54:08.396Z,78.99
2022-11-24T00:56:38.210Z,78.63
2022-11-24T00:59:06.235Z,78.79
2022-11-24T01:01:34.369Z,79.07
2022-11-24T01:04:02.856Z,79.04
2022-11-24T01:06:32.983Z,78.81
2022-11-24T01:09:01.627Z,78.98
2022-11-24T01:12:01.430Z,78.77
2022-11-24T01:14:30.871Z,78.86
2022-11-24T01:17:01.169Z,78.91
2022-11-24T01:19:29.237Z,78.89
2022-11-24T01:21:57.193Z,78.77
2022-11-24T01:24:26.052Z,78.92
2022-11-24T01:26:54.167Z,79.01
2022-11-24T01:29:22.352Z,79.15
2022-11-24T01:31:50.272Z,79.17
2022-11-24T01:34:18.476Z,79.18
2022-11-24T01:36:46.495Z,79.03
2022-11-24T01:39:14.872Z,79.03
2022-11-24T01:41:43.322Z,79.18
2022-11-24T01:44:42.480Z,79.03
2022-11-24T01:47:37.267Z,78.96
2022-11-24T01:50:06.173Z,78.97
2022-11-24T01:52:53.013Z,79.09
2022-11-24T01:55:25.917Z,79.16
2022-11-24T01:58:00.699Z,78.88
2022-11-24T02:00:28.873Z,78.89
2022-11-24T02:02:59.869Z,79.22
2022-11-24T02:05:39.236Z,79.07
2022-11-24T02:08:17.505Z,78.81
2022-11-24T02:10:46.444Z,79.00
2022-11-24T02:13:15.881Z,79.17
2022-11-24T02:15:43.964Z,79.10
2022-11-24T02:18:12.001Z,79.27
2022-11-24T02:20:40.123Z,79.33
2022-11-24T02:23:17.350Z,79.48
2022-11-24T02:26:19.546Z,79.30
2022-11-24T02:28:47.895Z,79.33
2022-11-24T02:31:15.917Z,79.18
2022-11-24T02:33:44.576Z,79.12
2022-11-24T02:36:12.574Z,79.35
2022-11-24T02:38:40.728Z,79.35
2022-11-24T02:41:17.950Z,79.74
2022-11-24T02:43:56.039Z,79.81
2022-11-24T02:46:24.486Z,79.82
2022-11-24T02:48:54.939Z,79.69
2022-11-24T02:51:23.518Z,79.76
2022-11-24T02:53:51.536Z,79.75
2022-11-24T02:56:19.569Z,79.67
2022-11-24T02:58:47.768Z,79.79
2022-11-24T03:01:15.958Z,79.84
2022-11-24T03:03:44.586Z,79.99
2022-11-24T03:06:12.516Z,80.05
2022-11-24T03:08:40.823Z,79.83
2022-11-24T03:11:09.013Z,80.09
2022-11-24T03:13:37.132Z,80.18
2022-11-24T03:16:10.445Z,80.03
2022-11-24T03:18:39.383Z,80.05
2022-11-24T03:21:07.727Z,80.03
2022-11-24T03:23:36.187Z,79.96
2022-11-24T03:26:12.277Z,80.10
2022-11-24T03:28:41.310Z,80.12
2022-11-24T03:31:10.233Z,80.13
2022-11-24T03:33:38.981Z,80.17
2022-11-24T03:36:08.436Z,80.41
2022-11-24T03:38:36.574Z,80.23
2022-11-24T03:41:04.600Z,80.55
2022-11-24T03:43:33.036Z,80.02
2022-11-24T03:46:01.307Z,80.17
2022-11-24T03:48:29.407Z,80.18
2022-11-24T03:50:59.866Z,80.09
2022-11-24T03:53:30.374Z,79.93
2022-11-24T03:55:58.597Z,80.01
2022-11-24T03:58:27.106Z,80.02
2022-11-24T04:00:56.541Z,80.17
2022-11-24T04:03:24.923Z,80.20
2022-11-24T04:05:53.383Z,80.19
2022-11-24T04:08:22.385Z,80.13
2022-11-24T04:10:52.507Z,79.98
2022-11-24T04:13:24.016Z,79.87
2022-11-24T04:15:53.698Z,80.09
2022-11-24T04:18:22.181Z,80.05
2022-11-24T04:20:51.961Z,80.01
2022-11-24T04:23:20.069Z,80.18
2022-11-24T04:25:48.927Z,80.16
2022-11-24T04:28:17.161Z,80.03
2022-11-24T04:30:45.324Z,80.13
2022-11-24T04:33:13.549Z,80.00
2022-11-24T04:35:41.606Z,80.19
2022-11-24T04:38:09.609Z,79.99
2022-11-24T04:40:38.859Z,79.69
2022-11-24T04:43:07.154Z,79.94
2022-11-24T04:45:35.824Z,79.78
2022-11-24T04:48:04.925Z,79.84
2022-11-24T04:50:33.026Z,79.90
2022-11-24T04:53:01.049Z,79.86
2022-11-24T04:55:29.382Z,80.00
2022-11-24T04:57:57.525Z,80.10
2022-11-24T05:00:25.473Z,79.93
2022-11-24T05:02:53.442Z,79.82
2022-11-24T05:05:21.760Z,79.96
2022-11-24T05:07:49.850Z,80.08
2022-11-24T05:10:36.109Z,79.96
2022-11-24T05:13:06.951Z,79.97
2022-11-24T05:15:36.957Z,79.82
2022-11-24T05:18:07.083Z,79.88
2022-11-24T05:20:35.644Z,79.73
2022-11-24T05:23:08.485Z,79.78
2022-11-24T05:25:36.929Z,79.78
2022-11-24T05:28:10.141Z,79.95
2022-11-24T05:30:40.253Z,79.58
2022-11-24T05:33:12.357Z,79.54
2022-11-24T05:35:40.576Z,79.35
2022-11-24T05:38:08.776Z,79.47
2022-11-24T05:40:37.996Z,79.54
2022-11-24T05:43:10.228Z,79.65
2022-11-24T05:45:38.183Z,79.51
2022-11-24T05:48:08.810Z,79.71
2022-11-24T05:50:36.916Z,79.75
2022-11-24T05:53:06.576Z,79.66
2022-11-24T05:55:35.343Z,79.70
2022-11-24T05:58:06.368Z,79.78
2022-11-24T06:00:35.457Z,79.74
2022-11-24T06:03:03.996Z,79.70
2022-11-24T06:05:32.167Z,79.68
2022-11-24T06:08:00.967Z,79.54
2022-11-24T06:10:29.074Z,79.68
2022-11-24T06:12:57.357Z,79.64
2022-11-24T06:15:25.293Z,79.96
2022-11-24T06:17:56.482Z,79.96
2022-11-24T06:20:31.209Z,79.91
2022-11-24T06:23:01.868Z,79.93
2022-11-24T06:25:30.236Z,79.74
2022-11-24T06:27:58.255Z,79.72
2022-11-24T06:30:27.021Z,79.89
2022-11-24T06:32:55.623Z,79.92
2022-11-24T06:35:23.595Z,80.01
2022-11-24T06:37:51.980Z,80.02
2022-11-24T06:40:20.079Z,79.95
2022-11-24T06:42:52.508Z,79.70
2022-11-24T06:45:20.600Z,79.87
2022-11-24T06:47:48.827Z,79.92
2022-11-24T06:50:17.369Z,79.93
2022-11-24T06:52:45.572Z,79.76
2022-11-24T06:55:13.850Z,79.80
2022-11-24T06:57:42.207Z,79.70
2022-11-24T07:00:11.366Z,79.66
2022-11-24T07:02:45.512Z,79.49
2022-11-24T07:05:15.251Z,79.58
2022-11-24T07:07:51.045Z,79.78
2022-11-24T07:10:19.597Z,79.63
2022-11-24T07:12:47.862Z,79.71
2022-11-24T07:15:15.790Z,79.71
2022-11-24T07:17:43.934Z,79.51
2022-11-24T07:20:13.918Z,79.54
2022-11-24T07:22:41.967Z,79.36
2022-11-24T07:25:11.200Z,79.39
2022-11-24T07:27:39.664Z,79.10
2022-11-24T07:30:10.170Z,79.38
2022-11-24T07:32:38.388Z,79.41
2022-11-24T07:35:06.785Z,79.54
2022-11-24T07:37:34.705Z,79.49
2022-11-24T07:40:02.848Z,79.36
2022-11-24T07:42:30.689Z,79.36
2022-11-24T07:44:58.523Z,79.53
2022-11-24T07:47:29.406Z,79.48
2022-11-24T07:49:57.238Z,79.34
2022-11-24T07:52:26.824Z,79.62
2022-11-24T07:54:54.924Z,79.52
2022-11-24T07:57:23.761Z,79.47
2022-11-24T07:59:51.611Z,79.56
2022-11-24T08:02:19.916Z,79.46
2022-11-24T08:04:47.735Z,79.28
2022-11-24T08:07:15.907Z,79.41
2022-11-24T08:09:43.904Z,79.08
2022-11-24T08:12:11.885Z,79.31
2022-11-24T08:14:39.789Z,79.08
2022-11-24T08:17:08.667Z,79.46
2022-11-24T08:19:37.157Z,79.39
2022-11-24T08:22:05.236Z,79.37
2022-11-24T08:24:33.690Z,79.60
2022-11-24T08:27:01.740Z,79.57
2022-11-24T08:29:30.506Z,79.51
2022-11-24T08:31:58.648Z,79.62
2022-11-24T08:34:29.392Z,79.46
2022-11-24T08:36:57.218Z,79.39
2022-11-24T08:39:25.294Z,79.30
2022-11-24T08:41:53.142Z,79.33
2022-11-24T08:44:21.091Z,79.31
2022-11-24T08:46:50.204Z,79.44
2022-11-24T08:49:19.039Z,79.61
2022-11-24T08:51:48.650Z,79.65
2022-11-24T08:54:20.891Z,79.50
2022-11-24T08:56:55.755Z,79.74
2022-11-24T08:59:25.191Z,79.62
2022-11-24T09:01:53.170Z,79.20
2022-11-24T09:04:21.093Z,79.15
2022-11-24T09:06:49.684Z,79.11
2022-11-24T09:09:18.368Z,79.38
2022-11-24T09:11:47.075Z,79.21
2022-11-24T09:14:15.385Z,79.20
2022-11-24T09:16:43.241Z,79.35
2022-11-24T09:19:11.089Z,79.26
2022-11-24T09:21:39.215Z,79.36
2022-11-24T09:24:08.197Z,79.27
2022-11-24T09:26:44.596Z,79.25
2022-11-24T09:29:16.308Z,79.12
2022-11-24T09:31:48.469Z,79.00
2022-11-24T09:34:17.254Z,79.07
2022-11-24T09:36:45.133Z,79.06
2022-11-24T09:39:13.015Z,78.80
2022-11-24T09:42:06.755Z,79.04
2022-11-24T09:44:58.626Z,79.07
2022-11-24T09:47:49.842Z,78.94
2022-11-24T09:50:31.959Z,79.04
2022-11-24T09:53:06.287Z,79.29
2022-11-24T09:55:38.168Z,79.29
2022-11-24T09:58:21.487Z,79.27
2022-11-24T10:00:53.346Z,79.44
2022-11-24T10:03:43.728Z,79.26
2022-11-24T10:06:39.184Z,79.34
2022-11-24T10:09:13.440Z,79.34
2022-11-24T10:12:03.419Z,79.52
2022-11-24T10:14:53.045Z,79.39
2022-11-24T10:17:42.868Z,79.32
2022-11-24T10:20:28.548Z,79.13
2022-11-24T10:23:03.033Z,79.17
2022-11-24T10:25:50.716Z,79.11
2022-11-24T10:28:19.392Z,79.01
2022-11-24T10:30:47.313Z,79.06
2022-11-24T10:33:19.712Z,79.09
2022-11-24T10:35:53.382Z,79.04
2022-11-24T10:38:21.981Z,78.92
2022-11-24T10:41:07.558Z,78.89
2022-11-24T10:43:42.689Z,78.83
2022-11-24T10:46:24.760Z,78.84
2022-11-24T10:49:04.041Z,78.73
2022-11-24T10:52:05.833Z,78.93
2022-11-24T10:54:36.135Z,78.97
2022-11-24T10:57:04.226Z,79.07
2022-11-24T10:59:38.505Z,79.22
2022-11-24T11:02:34.524Z,79.14
2022-11-24T11:05:42.576Z,79.09
2022-11-24T11:08:19.259Z,78.92
2022-11-24T11:11:11.214Z,79.12
2022-11-24T11:13:51.962Z,78.80
2022-11-24T11:16:27.796Z,78.67
2022-11-24T11:18:56.288Z,78.62
2022-11-24T11:21:39.653Z,78.87
2022-11-24T11:24:18.550Z,78.77
2022-11-24T11:26:46.878Z,78.98
2022-11-24T11:35:16.575Z,78.59
2022-11-24T11:37:45.890Z,78.62
2022-11-24T11:40:20.585Z,78.54
2022-11-24T11:43:08.061Z,78.94
2022-11-24T11:45:38.299Z,78.48
2022-11-24T11:48:12.817Z,78.30
2022-11-24T11:51:21.237Z,78.44
2022-11-24T11:53:47.600Z,78.56
2022-11-24T11:56:21.974Z,78.63
2022-11-24T11:59:21.644Z,78.43
2022-11-24T12:02:08.295Z,78.61
2022-11-24T12:04:53.097Z,78.65
2022-11-24T12:08:13.401Z,78.76
2022-11-24T12:10:54.126Z,78.78
2022-11-24T12:13:44.406Z,78.45
2022-11-24T12:16:42.104Z,78.58
2022-11-24T12:19:32.236Z,78.63
2022-11-24T12:22:06.273Z,78.71
2022-11-24T12:25:23.032Z,78.82
2022-11-24T12:28:18.053Z,78.63
2022-11-24T12:31:04.189Z,78.47
2022-11-24T12:33:59.555Z,78.52
2022-11-24T12:36:49.480Z,78.53
2022-11-24T12:39:47.360Z,78.54
2022-11-24T12:42:35.913Z,78.68
2022-11-24T12:45:13.214Z,78.53
2022-11-24T12:48:01.203Z,78.61
2022-11-24T12:50:40.194Z,78.63
2022-11-24T12:53:29.243Z,78.69
2022-11-24T12:56:21.326Z,78.40
2022-11-24T12:59:06.336Z,78.59
2022-11-24T13:01:41.842Z,78.58
2022-11-24T13:04:33.105Z,78.44
2022-11-24T13:07:10.930Z,78.35
2022-11-24T13:10:17.387Z,78.35
2022-11-24T13:13:05.263Z,78.56
2022-11-24T13:16:07.120Z,78.65
2022-11-24T13:18:57.179Z,78.54
2022-11-24T13:21:31.227Z,78.40
2022-11-24T13:24:01.525Z,78.40
2022-11-24T13:26:41.484Z,78.37
2022-11-24T13:29:28.991Z,78.12
2022-11-24T13:32:03.339Z,78.05
2022-11-24T13:34:55.311Z,78.12
2022-11-24T13:37:26.569Z,78.05
2022-11-24T13:40:14.366Z,78.10
2022-11-24T13:42:57.800Z,78.10
2022-11-24T13:45:45.340Z,78.23
2022-11-24T13:48:29.456Z,78.06
2022-11-24T13:50:57.958Z,77.94
2022-11-24T13:53:38.477Z,77.99
2022-11-24T13:56:12.900Z,77.99
2022-11-24T13:58:44.287Z,77.91
2022-11-24T14:01:43.867Z,77.93
2022-11-24T14:04:30.631Z,77.95
2022-11-24T14:07:09.827Z,77.85
2022-11-24T14:09:51.328Z,77.81
2022-11-24T14:12:25.313Z,77.84
2022-11-24T14:14:57.728Z,77.92
2022-11-24T14:17:28.858Z,77.93
2022-11-24T14:19:58.250Z,77.77
2022-11-24T14:22:34.324Z,78.05
2022-11-24T14:25:03.664Z,77.94
2022-11-24T14:27:38.773Z,77.77
2022-11-24T14:30:10.057Z,77.81
2022-11-24T14:32:38.379Z,77.93
2022-11-24T14:35:43.861Z,77.89
2022-11-24T14:38:14.798Z,77.91
2022-11-24T14:40:48.991Z,77.78
2022-11-24T14:43:26.033Z,77.76
2022-11-24T14:46:10.366Z,77.79
2022-11-24T14:48:58.919Z,77.80
2022-11-24T14:51:34.629Z,77.91
2022-11-24T14:54:14.226Z,77.70
2022-11-24T14:56:55.858Z,77.73
2022-11-24T14:59:27.105Z,77.84
2022-11-24T15:01:55.394Z,77.79
2022-11-24T15:07:29.252Z,77.67
2022-11-24T15:10:02.874Z,77.66
2022-11-24T15:12:36.071Z,77.75
2022-11-24T15:15:05.669Z,77.82
2022-11-24T15:17:34.433Z,77.85
2022-11-24T15:20:10.832Z,78.05
2022-11-24T15:22:41.677Z,78.07
2022-11-24T15:25:28.790Z,78.05
2022-11-24T15:27:56.880Z,77.99
2022-11-24T15:30:27.669Z,77.79
2022-11-24T15:32:57.756Z,77.93
2022-11-24T15:35:30.584Z,77.66
2022-11-24T15:37:59.059Z,77.87
2022-11-24T15:40:27.755Z,77.70
2022-11-24T15:42:59.612Z,78.00
2022-11-24T15:45:34.171Z,77.88
2022-11-24T15:48:02.133Z,77.95
2022-11-24T15:50:30.104Z,78.00
2022-11-24T15:52:58.355Z,77.94
2022-11-24T15:55:26.310Z,77.99
2022-11-24T15:57:54.399Z,77.86
2022-11-24T16:00:24.082Z,77.92
2022-11-24T16:02:52.073Z,77.75
2022-11-24T16:05:20.469Z,77.80
2022-11-24T16:07:48.671Z,77.95
2022-11-24T16:10:26.029Z,77.96
2022-11-24T16:12:54.258Z,77.85
2022-11-24T16:15:22.118Z,77.97
2022-11-24T16:17:51.376Z,77.82
2022-11-24T16:20:19.702Z,77.76
2022-11-24T16:22:47.658Z,77.74
2022-11-24T16:25:16.000Z,77.65
2022-11-24T16:27:44.177Z,77.63
2022-11-24T16:30:13.364Z,77.77
2022-11-24T16:32:43.578Z,77.68
2022-11-24T16:35:12.027Z,77.61
2022-11-24T16:37:40.062Z,77.52
2022-11-24T16:40:08.651Z,77.68
2022-11-24T16:42:36.666Z,77.57
2022-11-24T16:45:04.854Z,77.81
2022-11-24T16:47:32.764Z,77.76
2022-11-24T16:50:01.364Z,77.68
2022-11-24T16:52:29.513Z,77.72
2022-11-24T16:54:57.749Z,77.60
2022-11-24T16:57:25.852Z,77.73
2022-11-24T16:59:57.378Z,77.66
2022-11-24T17:02:25.972Z,77.90
2022-11-24T17:05:00.147Z,77.86
2022-11-24T17:07:28.179Z,77.89
2022-11-24T17:09:56.083Z,77.73
2022-11-24T17:12:24.374Z,77.70
2022-11-24T17:15:09.735Z,77.67
2022-11-24T17:18:01.266Z,77.63
2022-11-24T17:20:28.534Z,77.69
2022-11-24T17:22:57.526Z,77.85
2022-11-24T17:25:25.850Z,77.81
2022-11-24T17:27:54.458Z,78.19
2022-11-24T17:30:22.965Z,78.12
2022-11-24T17:32:56.909Z,78.19
2022-11-24T17:35:25.412Z,78.01
2022-11-24T17:37:53.325Z,77.87
2022-11-24T17:40:28.487Z,77.95
2022-11-24T17:42:59.873Z,77.97
2022-11-24T17:45:29.048Z,78.04
2022-11-24T17:48:00.847Z,77.93
2022-11-24T17:50:28.745Z,78.10
2022-11-24T17:52:56.850Z,77.99
2022-11-24T17:55:25.004Z,77.97
2022-11-24T17:57:53.079Z,77.97
2022-11-24T18:00:21.321Z,78.00
2022-11-24T18:02:49.726Z,78.02
2022-11-24T18:05:17.941Z,77.98
2022-11-24T18:07:45.928Z,78.18
2022-11-24T18:10:14.541Z,78.06
2022-11-24T18:12:42.525Z,78.24
2022-11-24T18:15:10.830Z,78.43
2022-11-24T18:17:39.935Z,78.39
2022-11-24T18:20:08.798Z,78.27
2022-11-24T18:23:04.549Z,78.11
2022-11-24T18:25:28.365Z,78.28
2022-11-24T18:27:56.524Z,78.02
2022-11-24T18:30:24.886Z,78.11
2022-11-24T18:32:53.318Z,77.98
2022-11-24T18:35:22.912Z,77.90
2022-11-24T18:37:51.774Z,78.00
2022-11-24T18:40:20.036Z,77.93
2022-11-24T18:42:51.594Z,77.91
2022-11-24T18:45:19.471Z,77.86
2022-11-24T18:47:47.703Z,77.89
2022-11-24T18:50:17.413Z,77.75
2022-11-24T18:52:45.817Z,77.74
2022-11-24T18:55:14.116Z,77.74
2022-11-24T18:57:42.253Z,77.67
2022-11-24T19:00:12.913Z,77.76
2022-11-24T19:02:41.398Z,77.96
2022-11-24T19:05:09.574Z,77.99
2022-11-24T19:07:38.973Z,77.96
2022-11-24T19:10:08.154Z,77.97
2022-11-24T19:12:36.624Z,77.93
2022-11-24T19:15:04.894Z,78.04
2022-11-24T19:17:32.947Z,77.92
2022-11-24T19:20:00.973Z,77.96
2022-11-24T19:22:28.964Z,77.83
2022-11-24T19:24:57.169Z,77.72
2022-11-24T19:27:25.644Z,78.04
2022-11-24T19:29:55.042Z,77.99
2022-11-24T19:32:23.291Z,77.97
2022-11-24T19:34:51.619Z,77.92
2022-11-24T19:37:19.481Z,77.92
2022-11-24T19:39:48.004Z,77.90
2022-11-24T19:42:16.562Z,77.79
2022-11-24T19:44:44.565Z,77.96
2022-11-24T19:47:16.129Z,77.96
2022-11-24T19:49:46.020Z,78.23
2022-11-24T19:52:14.113Z,78.26
2022-11-24T19:54:42.332Z,78.20
2022-11-24T19:57:11.174Z,78.38
2022-11-24T19:59:39.158Z,78.35
2022-11-24T20:02:07.291Z,78.41
2022-11-24T20:04:38.517Z,78.36
2022-11-24T20:07:08.139Z,78.49
2022-11-24T20:09:36.258Z,78.40
2022-11-24T20:12:04.568Z,78.54
2022-11-24T20:14:32.946Z,78.50
2022-11-24T20:17:01.426Z,78.56
2022-11-24T20:19:32.751Z,78.60
2022-11-24T20:22:04.366Z,78.69
2022-11-24T20:24:32.927Z,78.69
2022-11-24T20:27:01.375Z,78.80
2022-11-24T20:29:29.304Z,78.64
2022-11-24T20:31:57.588Z,78.85
2022-11-24T20:34:27.165Z,78.76
2022-11-24T20:36:55.453Z,78.59
2022-11-24T20:39:27.976Z,78.66
2022-11-24T20:41:56.518Z,78.74
2022-11-24T20:44:26.977Z,78.52
2022-11-24T20:46:57.511Z,78.36
2022-11-24T20:49:26.635Z,78.56
2022-11-24T20:51:56.958Z,78.43
2022-11-24T20:54:26.461Z,78.45
2022-11-24T20:56:54.594Z,78.55
2022-11-24T20:59:24.647Z,78.43
2022-11-24T21:01:55.898Z,78.40
2022-11-24T21:04:26.771Z,78.48
2022-11-24T21:06:55.615Z,78.46
2022-11-24T21:09:27.316Z,78.38
2022-11-24T21:11:55.327Z,78.28
2022-11-24T21:14:24.511Z,78.24
2022-11-24T21:16:52.670Z,78.03
2022-11-24T21:19:21.381Z,78.31
2022-11-24T21:21:50.141Z,78.40
2022-11-24T21:24:22.128Z,78.41
2022-11-24T21:26:53.001Z,78.68
2022-11-24T21:29:25.581Z,78.59
2022-11-24T21:31:53.857Z,78.66
2022-11-24T21:34:21.847Z,78.57
2022-11-24T21:36:49.992Z,78.68
2022-11-24T21:39:18.757Z,78.35
2022-11-24T21:41:47.805Z,78.57
2022-11-24T21:44:16.038Z,78.39
2022-11-24T21:46:51.039Z,78.64
2022-11-24T21:49:23.959Z,78.59
2022-11-24T21:51:55.817Z,78.62
2022-11-24T21:54:24.782Z,78.61
2022-11-24T21:56:54.457Z,78.56
2022-11-24T21:59:22.688Z,78.52
2022-11-24T22:01:51.122Z,78.57
2022-11-24T22:04:19.033Z,78.36
2022-11-24T22:06:46.945Z,78.43
2022-11-24T22:09:18.168Z,78.55
2022-11-24T22:11:49.722Z,78.58
2022-11-24T22:14:18.259Z,78.52
2022-11-24T22:16:46.721Z,78.59
2022-11-24T22:19:14.694Z,78.60
2022-11-24T22:21:42.740Z,78.76
2022-11-24T22:24:11.309Z,78.67
2022-11-24T22:26:39.214Z,78.77
2022-11-24T22:29:08.381Z,78.69
2022-11-24T22:31:36.292Z,78.65
2022-11-24T22:34:04.920Z,78.88
2022-11-24T22:36:32.894Z,78.77
2022-11-24T22:39:04.195Z,78.97
2022-11-24T22:41:34.638Z,78.89
2022-11-24T22:44:02.765Z,78.90
2022-11-24T22:46:32.378Z,79.00
2022-11-24T22:49:02.005Z,78.86
2022-11-24T22:51:34.778Z,78.93
2022-11-24T22:54:04.687Z,79.01
2022-11-24T22:56:33.732Z,79.05
2022-11-24T22:59:02.368Z,78.99
2022-11-24T23:01:31.594Z,79.00
2022-11-24T23:03:59.553Z,79.20
2022-11-24T23:06:29.539Z,79.02
2022-11-24T23:08:59.641Z,79.13
2022-11-24T23:11:37.761Z,79.01
2022-11-24T23:14:14.534Z,78.82
2022-11-24T23:16:43.141Z,78.92
2022-11-24T23:19:11.441Z,78.92
2022-11-24T23:21:39.821Z,78.75
2022-11-24T23:24:08.714Z,78.75
2022-11-24T23:26:41.333Z,78.86
2022-11-24T23:29:10.789Z,78.77
2022-11-24T23:31:41.902Z,78.80
2022-11-24T23:34:10.370Z,78.91
2022-11-24T23:36:43.538Z,78.68
2022-11-24T23:39:13.647Z,78.65
2022-11-24T23:41:41.857Z,78.54
2022-11-24T23:44:09.715Z,78.60
2022-11-24T23:46:38.092Z,78.53
2022-11-24T23:49:06.505Z,78.49
2022-11-24T23:51:35.099Z,78.29
2022-11-24T23:54:08.078Z,78.27
2022-11-24T23:56:36.830Z,78.52
2022-11-24T23:59:05.379Z,78.45
